Pagrindinis puslapis
METAR-TAF:

METAR-TAF

Oro uostai :

Draughon-Miller Central Texas Regional Airport

Temple, Teksasas, Jungtinės Amerikos Valstijos

platuma: 31-09N, ilguma: 097-24W, Aukštis: 208 m

Dabartinis oras

Ataskaita buvo paskelbta 41 minutes, ne 03:51 UTC
Vėjas 4 kt iš Rytų
Temperatūra 18°C
Drėgmė 77%
Slėgis 1024 hPa
Matomumas: 16.1 km
Išsisklaidę debesys ne aukštis 4700 ft

METAR: KTPL 140351Z AUTO 10004KT 10SM SCT047 18/14 A3024 RMK AO2 SLP235 T01780144

Laikas: 23:32 (04:32 UTC)


TAF: trūkstamas

Orai ataskaitas ir orų prognozės (METAR, TAF).

turimą stotys yra geltonos ir raudonos taškus žemėlapyje.

Perkelti pele per norėdami pamatyti stoties vardą.

Tada spustelėkite, norėdami matyti oro stebėjimo ir prognozės.

Norėdami pakeisti žemėlapį: spustelėkite ant žalios mygtukų su juodo kryžiaus žemyn,; žalią mygtuką su brūkšneliu, jei norite nutolinti; arba žalių rodyklių gretimoms žemėlapius.


METAR-TAF: